Decoded Metar for SBBV (BOA VISTA in BRAZIL) (IATA:BVB) | Meteo·Mobile Aviation Weather
aviador You're here:

SBBV Decoded Metar

BOA VISTA in BRAZIL
Report Time2019-02-17 20:00:00
UTC Time2019-02-17 20:01:23
Flight Rules vfr VFR
Wind090° at 15 kt
W.Decomp.*RWY 08: 13.7 kt HW 6.1 kt RCW
W.Rank090° ranks 4
Current wind is above 090° avg. (7.1)
Visibility9999 m
Phenomena:N/A
Clouds:Broken 040 Hf
Few TCU 045 Hf
Scattered 080 Hf
Expected CloudBase > 7,600 ft AGL from Temp-Dew spread
Ceiling4,000 ft
Temp34°C (ISA +20)
Dew Point15°C (32% RH)
Heat Index33.6°C
AAT30.2°C
QNH1010 hPa
Density Alt3,051 ft
Elevation459 ft
Report Wrong Elevation
Raw Report
METAR SBBV 172000Z 09015KT 9999 BKN040 FEW045TCU SCT080 34/15 Q1010=

Extra information for SBBV:More info

Metar Taf Metar & Taf Last 4 Metars F.Rules Stats Wind Profile Meteogram Temp Stats Airport Information Weather charts Add Link Nearby VenuesMetar ALERT Operation Metar Decoded Social comments